createdAt,value
2023-03-14T00:00:58.061Z,11.10
2023-03-14T00:01:58.066Z,9.60
2023-03-14T00:02:58.124Z,10.10
2023-03-14T00:03:58.036Z,10.10
2023-03-14T00:04:58.019Z,11.00
2023-03-14T00:05:58.004Z,9.00
2023-03-14T00:06:57.992Z,10.80
2023-03-14T00:07:57.980Z,10.70
2023-03-14T00:08:57.989Z,10.80
2023-03-14T00:09:57.961Z,9.80
2023-03-14T00:10:57.953Z,11.70
2023-03-14T00:11:57.937Z,8.80
2023-03-14T00:12:57.942Z,10.70
2023-03-14T00:13:57.943Z,11.90
2023-03-14T00:14:57.913Z,10.30
2023-03-14T00:15:57.939Z,9.20
2023-03-14T00:16:57.898Z,11.10
2023-03-14T00:17:57.880Z,11.00
2023-03-14T00:18:57.896Z,10.80
2023-03-14T00:19:57.859Z,10.70
2023-03-14T00:20:57.856Z,10.60
2023-03-14T00:21:57.839Z,11.00
2023-03-14T00:22:57.834Z,10.00
2023-03-14T00:23:57.842Z,11.80
2023-03-14T00:24:57.813Z,10.40
2023-03-14T00:25:57.799Z,11.60
2023-03-14T00:26:57.790Z,10.90
2023-03-14T00:27:57.781Z,10.00
2023-03-14T00:28:57.787Z,11.00
2023-03-14T00:29:57.757Z,9.10
2023-03-14T00:30:57.826Z,13.20
2023-03-14T00:31:57.754Z,11.30
2023-03-14T00:32:57.761Z,9.90
2023-03-14T00:33:57.718Z,10.40
2023-03-14T00:34:57.712Z,10.40
2023-03-14T00:35:57.737Z,12.80
2023-03-14T00:36:57.720Z,11.10
2023-03-14T00:37:57.677Z,9.90
2023-03-14T00:38:57.704Z,11.30
2023-03-14T00:39:57.656Z,11.40
2023-03-14T00:40:57.651Z,7.80
2023-03-14T00:41:57.649Z,12.60
2023-03-14T00:42:57.639Z,9.20
2023-03-14T00:43:57.639Z,10.50
2023-03-14T00:44:57.611Z,12.00
2023-03-14T00:45:57.594Z,12.70
2023-03-14T00:46:57.710Z,11.60
2023-03-14T00:47:57.572Z,10.80
2023-03-14T00:48:57.566Z,10.50
2023-03-14T00:49:57.555Z,10.50
2023-03-14T00:50:57.548Z,10.90
2023-03-14T00:51:57.555Z,11.10
2023-03-14T00:52:57.532Z,10.90
2023-03-14T00:53:57.524Z,11.40
2023-03-14T00:54:57.511Z,12.40
2023-03-14T00:55:57.491Z,11.40
2023-03-14T00:56:57.501Z,11.90
2023-03-14T00:57:57.471Z,12.30
2023-03-14T00:58:57.484Z,10.50
2023-03-14T00:59:57.449Z,9.60
2023-03-14T01:00:57.442Z,11.60
2023-03-14T01:01:57.479Z,10.90
2023-03-14T01:02:57.492Z,11.20
2023-03-14T01:03:57.466Z,10.20
2023-03-14T01:04:57.412Z,8.90
2023-03-14T01:05:57.389Z,10.30
2023-03-14T01:06:57.380Z,10.00
2023-03-14T01:07:57.368Z,10.30
2023-03-14T01:08:57.399Z,11.00
2023-03-14T01:09:57.347Z,11.30
2023-03-14T01:10:57.345Z,12.20
2023-03-14T01:11:57.330Z,12.00
2023-03-14T01:12:57.335Z,11.90
2023-03-14T01:13:57.348Z,11.40
2023-03-14T01:14:57.305Z,11.50
2023-03-14T01:15:57.341Z,12.20
2023-03-14T01:16:57.283Z,11.30
2023-03-14T01:17:57.265Z,10.60
2023-03-14T01:18:57.290Z,10.80
2023-03-14T01:19:57.284Z,12.40
2023-03-14T01:20:57.240Z,10.70
2023-03-14T01:21:57.230Z,12.00
2023-03-14T01:22:57.223Z,9.90
2023-03-14T01:23:57.235Z,12.40
2023-03-14T01:24:57.195Z,10.80
2023-03-14T01:25:57.186Z,12.10
2023-03-14T01:26:57.178Z,11.20
2023-03-14T01:27:57.160Z,11.30
2023-03-14T01:28:57.178Z,11.50
2023-03-14T01:29:57.143Z,9.90
2023-03-14T01:30:57.145Z,10.30
2023-03-14T01:31:57.133Z,10.80
2023-03-14T01:32:57.214Z,10.70
2023-03-14T01:33:57.101Z,9.10
2023-03-14T01:34:57.101Z,12.10
2023-03-14T01:35:57.093Z,13.00
2023-03-14T01:36:57.083Z,12.80
2023-03-14T01:37:57.078Z,12.50
2023-03-14T01:38:57.072Z,11.90
2023-03-14T01:39:57.043Z,12.00
2023-03-14T01:40:57.034Z,13.00
2023-03-14T01:41:57.036Z,11.40
2023-03-14T01:42:57.013Z,11.50
2023-03-14T01:43:57.042Z,8.70
2023-03-14T01:44:56.999Z,12.70
2023-03-14T01:45:57.022Z,12.10
2023-03-14T01:46:56.995Z,12.20
2023-03-14T01:47:56.962Z,10.90
2023-03-14T01:48:56.969Z,11.90
2023-03-14T01:49:56.942Z,11.20
2023-03-14T01:50:56.935Z,11.20
2023-03-14T01:51:56.923Z,10.70
2023-03-14T01:52:56.914Z,11.40
2023-03-14T01:53:56.923Z,11.10
2023-03-14T01:54:56.899Z,10.20
2023-03-14T01:55:56.877Z,11.30
2023-03-14T01:56:56.872Z,10.90
2023-03-14T01:57:56.858Z,11.10
2023-03-14T01:58:56.868Z,13.40
2023-03-14T01:59:56.841Z,12.50
2023-03-14T02:00:56.885Z,11.40
2023-03-14T02:01:56.818Z,11.80
2023-03-14T02:02:56.819Z,11.70
2023-03-14T02:03:56.846Z,10.70
2023-03-14T02:04:56.800Z,12.30
2023-03-14T02:05:56.776Z,10.00
2023-03-14T02:06:56.768Z,12.80
2023-03-14T02:07:56.756Z,12.00
2023-03-14T02:08:56.763Z,12.60
2023-03-14T02:09:56.732Z,13.90
2023-03-14T02:10:56.725Z,12.10
2023-03-14T02:11:56.725Z,13.10
2023-03-14T02:12:56.706Z,12.30
2023-03-14T02:13:56.713Z,11.40
2023-03-14T02:14:56.700Z,13.50
2023-03-14T02:15:56.669Z,12.10
2023-03-14T02:16:56.663Z,12.10
2023-03-14T02:17:56.649Z,11.20
2023-03-14T02:18:56.670Z,11.40
2023-03-14T02:19:56.631Z,10.60
2023-03-14T02:20:56.630Z,9.60
2023-03-14T02:21:56.608Z,11.90
2023-03-14T02:22:56.615Z,14.30
2023-03-14T02:23:56.587Z,10.50
2023-03-14T02:24:56.578Z,12.00
2023-03-14T02:25:56.592Z,12.80
2023-03-14T02:26:56.556Z,12.50
2023-03-14T02:27:56.601Z,10.20
2023-03-14T02:28:56.539Z,11.60
2023-03-14T02:29:56.545Z,9.90
2023-03-14T02:30:56.520Z,9.10
2023-03-14T02:31:56.578Z,11.80
2023-03-14T02:32:56.584Z,10.60
2023-03-14T02:33:56.481Z,11.50
2023-03-14T02:34:56.481Z,11.50
2023-03-14T02:35:56.529Z,10.80
2023-03-14T02:36:56.484Z,12.40
2023-03-14T02:37:56.485Z,12.60
2023-03-14T02:38:56.442Z,13.30
2023-03-14T02:39:56.442Z,11.30
2023-03-14T02:40:56.423Z,11.10
2023-03-14T02:41:56.416Z,11.50
2023-03-14T02:42:56.395Z,11.60
2023-03-14T02:43:56.385Z,12.60
2023-03-14T02:44:56.430Z,11.90
2023-03-14T02:45:56.487Z,10.70
2023-03-14T02:46:56.363Z,10.60
2023-03-14T02:47:56.351Z,12.50
2023-03-14T02:48:56.347Z,12.80
2023-03-14T02:49:56.332Z,16.80
2023-03-14T02:50:56.327Z,63.40
2023-03-14T02:51:56.303Z,36.80
2023-03-14T02:52:56.298Z,64.50
2023-03-14T02:53:56.285Z,39.40
2023-03-14T02:54:56.296Z,31.60
2023-03-14T02:55:56.263Z,41.60
2023-03-14T02:56:56.258Z,134.40
2023-03-14T02:57:56.245Z,96.10
2023-03-14T02:58:56.232Z,38.40
2023-03-14T02:59:56.243Z,28.10
2023-03-14T03:00:56.267Z,21.40
2023-03-14T03:01:56.202Z,24.50
2023-03-14T03:02:56.256Z,22.40
2023-03-14T03:03:56.185Z,21.30
2023-03-14T03:04:56.226Z,17.70
2023-03-14T03:05:56.154Z,25.00
2023-03-14T03:06:56.145Z,34.80
2023-03-14T03:07:56.131Z,38.30
2023-03-14T03:08:56.128Z,26.20
2023-03-14T03:09:56.134Z,21.10
2023-03-14T03:10:56.104Z,26.00
2023-03-14T03:11:56.094Z,19.60
2023-03-14T03:12:56.086Z,18.90
2023-03-14T03:13:56.078Z,14.30
2023-03-14T03:14:56.096Z,19.10
2023-03-14T03:15:56.052Z,14.50
2023-03-14T03:16:56.105Z,10.50
2023-03-14T03:17:56.033Z,11.70
2023-03-14T03:18:56.044Z,13.90
2023-03-14T03:19:56.033Z,7.60
2023-03-14T03:20:56.011Z,11.50
2023-03-14T03:21:56.004Z,10.00
2023-03-14T03:22:55.995Z,9.20
2023-03-14T03:23:55.977Z,14.50
2023-03-14T03:24:55.999Z,9.40
2023-03-14T03:25:55.960Z,7.60
2023-03-14T03:26:55.980Z,8.60
2023-03-14T03:27:55.946Z,7.40
2023-03-14T03:28:55.965Z,10.10
2023-03-14T03:29:55.941Z,7.40
2023-03-14T03:30:55.956Z,7.40
2023-03-14T03:31:55.900Z,5.90
2023-03-14T03:32:56.029Z,7.70
2023-03-14T03:33:55.894Z,7.60
2023-03-14T03:34:55.942Z,8.70
2023-03-14T03:35:55.889Z,9.80
2023-03-14T03:36:55.868Z,8.20
2023-03-14T03:37:55.846Z,9.50
2023-03-14T03:38:55.837Z,9.90
2023-03-14T03:39:55.851Z,10.90
2023-03-14T03:40:55.823Z,8.60
2023-03-14T03:41:55.806Z,9.50
2023-03-14T03:42:55.794Z,11.90
2023-03-14T03:43:55.801Z,7.70
2023-03-14T03:44:55.830Z,8.60
2023-03-14T03:45:55.849Z,9.10
2023-03-14T03:46:55.785Z,7.40
2023-03-14T03:47:55.749Z,6.60
2023-03-14T03:48:55.736Z,9.50
2023-03-14T03:49:55.769Z,12.70
2023-03-14T03:50:55.719Z,4.40
2023-03-14T03:51:55.721Z,7.20
2023-03-14T03:52:55.697Z,10.00
2023-03-14T03:53:55.705Z,9.50
2023-03-14T03:54:55.678Z,5.70
2023-03-14T03:55:55.673Z,10.70
2023-03-14T03:56:55.661Z,10.90
2023-03-14T03:57:55.660Z,8.20
2023-03-14T03:58:55.655Z,10.70
2023-03-14T03:59:55.654Z,8.10
2023-03-14T04:00:55.619Z,11.20
2023-03-14T04:01:55.612Z,11.70
2023-03-14T04:02:55.702Z,8.70
2023-03-14T04:03:55.643Z,14.50
2023-03-14T04:04:55.619Z,10.40
2023-03-14T04:05:55.570Z,9.20
2023-03-14T04:06:55.556Z,11.20
2023-03-14T04:07:55.551Z,11.80
2023-03-14T04:08:55.556Z,16.10
2023-03-14T04:09:55.561Z,13.90
2023-03-14T04:10:55.515Z,15.90
2023-03-14T04:11:55.514Z,13.90
2023-03-14T04:12:55.502Z,16.40
2023-03-14T04:13:55.494Z,15.20
2023-03-14T04:14:55.499Z,14.30
2023-03-14T04:15:55.517Z,14.30
2023-03-14T04:16:55.463Z,15.50
2023-03-14T04:17:55.456Z,15.50
2023-03-14T04:18:55.442Z,21.20
2023-03-14T04:19:55.458Z,17.20
2023-03-14T04:20:55.422Z,17.10
2023-03-14T04:21:55.416Z,18.00
2023-03-14T04:22:55.400Z,18.40
2023-03-14T04:23:55.396Z,12.80
2023-03-14T04:24:55.446Z,18.00
2023-03-14T04:25:55.373Z,20.00
2023-03-14T04:26:55.358Z,16.50
2023-03-14T04:27:55.356Z,13.90
2023-03-14T04:28:55.336Z,16.20
2023-03-14T04:29:55.370Z,14.00
2023-03-14T04:30:55.327Z,18.00
2023-03-14T04:31:55.318Z,17.80
2023-03-14T04:32:55.347Z,15.90
2023-03-14T04:33:55.293Z,15.70
2023-03-14T04:34:55.311Z,14.30
2023-03-14T04:35:55.394Z,16.30
2023-03-14T04:36:55.261Z,15.20
2023-03-14T04:37:55.253Z,18.50
2023-03-14T04:38:55.241Z,13.80
2023-03-14T04:39:55.245Z,16.10
2023-03-14T04:40:55.214Z,15.80
2023-03-14T04:41:55.238Z,13.50
2023-03-14T04:42:55.204Z,17.90
2023-03-14T04:43:55.194Z,12.80
2023-03-14T04:44:55.198Z,13.00
2023-03-14T04:45:55.176Z,16.20
2023-03-14T04:46:55.212Z,16.70
2023-03-14T04:47:55.151Z,18.10
2023-03-14T04:48:55.140Z,15.70
2023-03-14T04:49:55.158Z,16.30
2023-03-14T04:50:55.125Z,20.00
2023-03-14T04:51:55.120Z,15.90
2023-03-14T04:52:55.097Z,18.60
2023-03-14T04:53:55.087Z,17.50
2023-03-14T04:54:55.107Z,16.30
2023-03-14T04:55:55.070Z,17.00
2023-03-14T04:56:55.052Z,16.50
2023-03-14T04:57:55.048Z,16.50
2023-03-14T04:58:55.048Z,13.10
2023-03-14T04:59:55.058Z,16.20
2023-03-14T05:00:55.012Z,13.80
2023-03-14T05:01:55.125Z,14.40
2023-03-14T05:02:55.032Z,13.70
2023-03-14T05:03:54.984Z,13.30
2023-03-14T05:04:54.999Z,18.40
2023-03-14T05:05:54.962Z,17.00
2023-03-14T05:06:54.943Z,17.50
2023-03-14T05:07:54.885Z,15.40
2023-03-14T05:08:54.886Z,14.40
2023-03-14T05:09:54.935Z,13.90
2023-03-14T05:10:54.851Z,16.80
2023-03-14T05:11:54.850Z,10.60
2023-03-14T05:12:54.828Z,18.10
2023-03-14T05:13:54.824Z,14.10
2023-03-14T05:14:54.829Z,13.50
2023-03-14T05:15:54.895Z,16.80
2023-03-14T05:16:54.784Z,14.20
2023-03-14T05:17:54.807Z,12.00
2023-03-14T05:18:54.775Z,16.50
2023-03-14T05:19:54.787Z,14.10
2023-03-14T05:20:54.745Z,17.60
2023-03-14T05:21:54.737Z,16.50
2023-03-14T05:22:54.727Z,17.30
2023-03-14T05:23:54.724Z,17.10
2023-03-14T05:24:54.743Z,20.40
2023-03-14T05:25:54.729Z,13.00
2023-03-14T05:26:54.717Z,12.10
2023-03-14T05:27:54.680Z,12.20
2023-03-14T05:28:54.662Z,16.60
2023-03-14T05:29:54.688Z,14.50
2023-03-14T05:30:54.641Z,16.10
2023-03-14T05:31:54.671Z,17.00
2023-03-14T05:32:54.637Z,19.40
2023-03-14T05:33:54.614Z,16.50
2023-03-14T05:34:54.628Z,18.10
2023-03-14T05:35:54.625Z,22.00
2023-03-14T05:36:54.581Z,20.80
2023-03-14T05:37:54.582Z,17.70
2023-03-14T05:38:54.562Z,25.80
2023-03-14T05:39:54.569Z,28.00
2023-03-14T05:40:54.545Z,16.60
2023-03-14T05:41:54.537Z,13.70
2023-03-14T05:42:54.522Z,16.90
2023-03-14T05:43:54.526Z,12.60
2023-03-14T05:44:54.516Z,21.70
2023-03-14T05:45:54.521Z,13.80
2023-03-14T05:46:54.494Z,19.20
2023-03-14T05:47:54.481Z,16.10
2023-03-14T05:48:54.470Z,12.20
2023-03-14T05:49:54.481Z,15.90
2023-03-14T05:50:54.450Z,13.20
2023-03-14T05:51:54.480Z,18.90
2023-03-14T05:52:54.432Z,12.90
2023-03-14T05:53:54.427Z,17.00
2023-03-14T05:54:54.431Z,13.70
2023-03-14T05:55:56.697Z,16.10
2023-03-14T05:56:54.380Z,14.40
2023-03-14T05:57:54.393Z,12.00
2023-03-14T05:58:54.362Z,12.90
2023-03-14T05:59:54.373Z,18.40
2023-03-14T06:00:54.340Z,15.80
2023-03-14T06:01:54.346Z,16.40
2023-03-14T06:02:54.346Z,16.00
2023-03-14T06:03:54.318Z,14.30
2023-03-14T06:04:54.319Z,21.20
2023-03-14T06:05:54.296Z,16.90
2023-03-14T06:06:54.281Z,17.10
2023-03-14T06:07:54.271Z,15.10
2023-03-14T06:08:54.258Z,15.50
2023-03-14T06:09:54.269Z,14.00
2023-03-14T06:10:54.236Z,16.90
2023-03-14T06:11:54.233Z,20.90
2023-03-14T06:12:54.221Z,15.20
2023-03-14T06:13:54.208Z,15.60
2023-03-14T06:14:54.214Z,15.70
2023-03-14T06:15:54.196Z,10.90
2023-03-14T06:16:54.306Z,5.10
2023-03-14T06:17:54.174Z,9.10
2023-03-14T06:18:54.154Z,4.40
2023-03-14T06:19:54.154Z,6.50
2023-03-14T06:20:54.175Z,5.80
2023-03-14T06:21:54.128Z,7.00
2023-03-14T06:22:54.118Z,2.00
2023-03-14T06:23:54.134Z,3.40
2023-03-14T06:24:54.159Z,2.60
2023-03-14T06:25:54.167Z,5.90
2023-03-14T06:26:54.084Z,3.20
2023-03-14T06:27:54.073Z,3.10
2023-03-14T06:28:54.058Z,3.60
2023-03-14T06:29:54.063Z,4.20
2023-03-14T06:30:54.091Z,3.00
2023-03-14T06:31:54.034Z,1.40
2023-03-14T06:32:54.048Z,3.50
2023-03-14T06:33:54.015Z,3.80
2023-03-14T06:34:54.027Z,1.10
2023-03-14T06:35:54.020Z,1.00
2023-03-14T06:36:53.993Z,2.00
2023-03-14T06:37:53.982Z,2.30
2023-03-14T06:38:53.962Z,3.10
2023-03-14T06:39:53.983Z,0.90
2023-03-14T06:40:54.006Z,1.10
2023-03-14T06:41:53.948Z,3.50
2023-03-14T06:42:53.928Z,1.80
2023-03-14T06:43:55.443Z,1.40
2023-03-14T06:44:53.908Z,1.70
2023-03-14T06:45:53.986Z,1.50
2023-03-14T06:46:53.889Z,1.40
2023-03-14T06:47:53.886Z,1.60
2023-03-14T06:48:53.869Z,1.00
2023-03-14T06:49:53.879Z,2.70
2023-03-14T06:50:53.859Z,1.80
2023-03-14T06:51:53.845Z,1.00
2023-03-14T06:52:53.889Z,1.40
2023-03-14T06:53:53.819Z,1.60
2023-03-14T06:54:53.808Z,3.40
2023-03-14T06:55:54.015Z,2.20
2023-03-14T06:56:53.786Z,2.40
2023-03-14T06:57:53.782Z,1.50
2023-03-14T06:58:53.766Z,1.30
2023-03-14T06:59:53.760Z,0.90
2023-03-14T07:00:53.763Z,1.00
2023-03-14T07:01:53.808Z,1.30
2023-03-14T07:02:53.728Z,1.10
2023-03-14T07:03:53.718Z,6.10
2023-03-14T07:04:53.815Z,4.40
2023-03-14T07:05:53.751Z,6.00
2023-03-14T07:06:53.692Z,2.90
2023-03-14T07:07:53.708Z,2.90
2023-03-14T07:08:53.670Z,2.80
2023-03-14T07:09:54.009Z,3.10
2023-03-14T07:10:53.664Z,0.80
2023-03-14T07:11:53.636Z,2.30
2023-03-14T07:12:53.631Z,1.20
2023-03-14T07:13:53.620Z,0.80
2023-03-14T07:14:53.605Z,0.90
2023-03-14T07:15:53.649Z,0.90
2023-03-14T07:16:53.588Z,1.00
2023-03-14T07:17:53.579Z,1.00
2023-03-14T07:18:53.576Z,1.00
2023-03-14T07:19:53.565Z,0.90
2023-03-14T07:20:53.579Z,0.80
2023-03-14T07:21:53.550Z,1.60
2023-03-14T07:22:53.534Z,1.10
2023-03-14T07:23:53.529Z,1.00
2023-03-14T07:24:53.511Z,1.10
2023-03-14T07:25:53.516Z,1.00
2023-03-14T07:27:53.491Z,1.00
2023-03-14T07:28:53.470Z,1.40
2023-03-14T07:29:53.460Z,1.20
2023-03-14T07:30:53.516Z,1.10
2023-03-14T07:31:53.455Z,1.60
2023-03-14T07:32:53.463Z,1.40
2023-03-14T07:33:53.428Z,1.00
2023-03-14T07:34:53.412Z,0.90
2023-03-14T07:35:53.460Z,1.40
2023-03-14T07:36:53.392Z,1.40
2023-03-14T07:37:53.383Z,1.60
2023-03-14T07:38:53.367Z,1.70
2023-03-14T07:39:53.377Z,1.90
2023-03-14T07:40:53.360Z,1.30
2023-03-14T07:41:53.336Z,2.00
2023-03-14T07:42:53.326Z,1.20
2023-03-14T07:43:53.314Z,1.40
2023-03-14T07:44:53.552Z,1.70
2023-03-14T07:45:59.040Z,2.50
2023-03-14T07:46:53.316Z,2.30
2023-03-14T07:47:53.281Z,1.90
2023-03-14T07:48:53.260Z,1.40
2023-03-14T07:49:53.258Z,1.90
2023-03-14T07:50:53.278Z,1.50
2023-03-14T07:51:53.241Z,2.60
2023-03-14T07:52:53.227Z,1.20
2023-03-14T07:53:53.212Z,1.30
2023-03-14T07:54:53.198Z,1.10
2023-03-14T07:55:53.246Z,1.50
2023-03-14T07:56:53.182Z,1.80
2023-03-14T07:57:53.183Z,2.20
2023-03-14T07:58:53.162Z,1.50
2023-03-14T07:59:53.158Z,1.10
2023-03-14T08:00:53.161Z,1.60
2023-03-14T08:01:53.145Z,2.10
2023-03-14T08:02:53.173Z,2.20
2023-03-14T08:03:53.158Z,2.10
2023-03-14T08:04:53.102Z,1.70
2023-03-14T08:05:53.115Z,2.50
2023-03-14T08:06:53.084Z,1.90
2023-03-14T08:07:53.074Z,1.10
2023-03-14T08:08:53.065Z,1.20
2023-03-14T08:09:53.048Z,1.40
2023-03-14T08:10:53.064Z,1.30
2023-03-14T08:11:53.029Z,1.80
2023-03-14T08:12:53.023Z,2.90
2023-03-14T08:13:53.018Z,1.10
2023-03-14T08:14:53.015Z,1.00
2023-03-14T08:15:53.074Z,2.90
2023-03-14T08:16:52.986Z,1.30
2023-03-14T08:17:52.968Z,1.20
2023-03-14T08:18:52.978Z,1.00
2023-03-14T08:19:52.975Z,1.00
2023-03-14T08:20:52.970Z,0.80
2023-03-14T08:21:52.960Z,1.20
2023-03-14T08:22:52.917Z,2.00
2023-03-14T08:23:52.908Z,1.80
2023-03-14T08:24:52.900Z,1.60
2023-03-14T08:25:52.955Z,1.70
2023-03-14T08:26:52.905Z,1.30
2023-03-14T08:27:52.872Z,1.10
2023-03-14T08:28:52.869Z,1.10
2023-03-14T08:29:52.844Z,1.20
2023-03-14T08:30:52.896Z,1.30
2023-03-14T08:31:53.032Z,1.60
2023-03-14T08:32:52.881Z,1.30
2023-03-14T08:33:52.808Z,1.40
2023-03-14T08:34:52.801Z,1.40
2023-03-14T08:35:52.824Z,1.00
2023-03-14T08:36:52.784Z,2.20
2023-03-14T08:37:52.775Z,2.20
2023-03-14T08:38:52.782Z,1.70
2023-03-14T08:39:52.755Z,1.50
2023-03-14T08:40:52.764Z,2.40
2023-03-14T08:41:52.726Z,1.30
2023-03-14T08:42:52.712Z,1.30
2023-03-14T08:43:52.706Z,1.70
2023-03-14T08:44:52.696Z,1.10
2023-03-14T08:45:52.696Z,1.10
2023-03-14T08:46:52.805Z,1.00
2023-03-14T08:47:52.671Z,1.40
2023-03-14T08:48:52.657Z,1.20
2023-03-14T08:49:52.669Z,1.10
2023-03-14T08:50:52.683Z,0.90
2023-03-14T08:51:52.631Z,1.20
2023-03-14T08:52:52.660Z,1.10
2023-03-14T08:53:52.602Z,1.00
2023-03-14T08:54:52.588Z,1.10
2023-03-14T08:55:52.591Z,1.30
2023-03-14T08:56:52.561Z,1.40
2023-03-14T08:57:52.567Z,1.10
2023-03-14T08:58:52.576Z,1.30
2023-03-14T08:59:52.532Z,1.10
2023-03-14T09:00:52.637Z,2.30
2023-03-14T09:01:52.518Z,1.10
2023-03-14T09:02:52.537Z,1.00
2023-03-14T09:03:52.508Z,1.40
2023-03-14T09:04:52.485Z,1.00
2023-03-14T09:05:52.478Z,0.90
2023-03-14T09:06:52.488Z,1.10
2023-03-14T09:07:52.484Z,0.80
2023-03-14T09:08:52.448Z,1.30
2023-03-14T09:09:52.431Z,1.60
2023-03-14T09:10:52.484Z,1.30
2023-03-14T09:11:52.422Z,1.10
2023-03-14T09:12:52.412Z,1.60
2023-03-14T09:13:52.388Z,1.20
2023-03-14T09:14:52.383Z,1.00
2023-03-14T09:15:52.361Z,0.90
2023-03-14T09:16:52.465Z,1.00
2023-03-14T09:17:52.340Z,1.10
2023-03-14T09:18:52.342Z,1.20
2023-03-14T09:19:52.323Z,1.20
2023-03-14T09:20:52.319Z,1.40
2023-03-14T09:21:52.315Z,1.00
2023-03-14T09:22:52.300Z,1.30
2023-03-14T09:23:52.284Z,1.00
2023-03-14T09:24:52.295Z,0.90
2023-03-14T09:25:52.269Z,1.30
2023-03-14T09:26:52.280Z,1.00
2023-03-14T09:27:52.249Z,1.10
2023-03-14T09:28:52.242Z,1.20
2023-03-14T09:29:52.220Z,1.70
2023-03-14T09:30:52.233Z,1.40
2023-03-14T09:31:52.282Z,1.00
2023-03-14T09:32:52.263Z,1.10
2023-03-14T09:33:52.178Z,0.90
2023-03-14T09:34:52.182Z,1.10
2023-03-14T09:35:52.229Z,1.20
2023-03-14T09:36:52.200Z,1.10
2023-03-14T09:37:52.140Z,1.10
2023-03-14T09:38:52.139Z,1.40
2023-03-14T09:39:52.119Z,0.90
2023-03-14T09:40:52.110Z,1.30
2023-03-14T09:41:52.109Z,0.90
2023-03-14T09:42:52.091Z,1.10
2023-03-14T09:43:52.193Z,1.00
2023-03-14T09:44:52.069Z,1.30
2023-03-14T09:45:52.092Z,0.90
2023-03-14T09:46:52.069Z,1.30
2023-03-14T09:47:59.130Z,0.90
2023-03-14T09:48:52.022Z,1.60
2023-03-14T09:49:52.010Z,1.00
2023-03-14T09:50:52.004Z,1.10
2023-03-14T09:51:52.013Z,1.00
2023-03-14T09:52:51.995Z,1.10
2023-03-14T09:53:51.972Z,1.00
2023-03-14T09:54:51.953Z,1.10
2023-03-14T09:55:52.056Z,1.00
2023-03-14T09:56:51.984Z,1.10
2023-03-14T09:57:51.918Z,1.00
2023-03-14T09:58:51.919Z,1.00
2023-03-14T09:59:51.900Z,0.90
2023-03-14T10:00:51.929Z,1.10
2023-03-14T10:01:51.987Z,0.90
2023-03-14T10:02:51.874Z,1.30
2023-03-14T10:03:51.926Z,1.30
2023-03-14T10:04:51.848Z,1.10
2023-03-14T10:05:51.920Z,1.00
2023-03-14T10:06:51.878Z,0.90
2023-03-14T10:07:51.828Z,1.10
2023-03-14T10:08:51.807Z,1.10
2023-03-14T10:09:51.788Z,1.30
2023-03-14T10:10:51.808Z,0.90
2023-03-14T10:11:51.784Z,1.30
2023-03-14T10:12:54.611Z,1.10
2023-03-14T10:13:51.751Z,1.20
2023-03-14T10:14:51.767Z,4.20
2023-03-14T10:15:51.726Z,8.30
2023-03-14T10:16:51.908Z,12.60
2023-03-14T10:17:51.708Z,11.30
2023-03-14T10:18:51.714Z,12.50
2023-03-14T10:19:51.689Z,11.90
2023-03-14T10:20:51.685Z,10.60
2023-03-14T10:21:51.681Z,10.30
2023-03-14T10:22:51.658Z,11.80
2023-03-14T10:23:51.645Z,12.20
2023-03-14T10:24:51.641Z,9.70
2023-03-14T10:25:51.623Z,12.40
2023-03-14T10:26:51.648Z,12.70
2023-03-14T10:27:51.602Z,11.50
2023-03-14T10:28:51.600Z,10.90
2023-03-14T10:29:51.591Z,12.30
2023-03-14T10:30:51.658Z,12.10
2023-03-14T10:32:51.593Z,10.60
2023-03-14T10:33:51.546Z,11.50
2023-03-14T10:34:51.546Z,11.40
2023-03-14T10:35:51.537Z,11.30
2023-03-14T10:36:51.549Z,11.50
2023-03-14T10:37:51.506Z,11.30
2023-03-14T10:38:51.526Z,12.60
2023-03-14T10:39:51.495Z,13.00
2023-03-14T10:40:51.484Z,10.80
2023-03-14T10:41:51.491Z,12.10
2023-03-14T10:42:51.459Z,13.30
2023-03-14T10:43:51.444Z,11.50
2023-03-14T10:44:51.439Z,14.50
2023-03-14T10:45:51.480Z,12.10
2023-03-14T10:46:51.467Z,12.40
2023-03-14T10:47:51.409Z,13.70
2023-03-14T10:48:51.403Z,11.20
2023-03-14T10:49:51.384Z,12.20
2023-03-14T10:50:51.375Z,11.30
2023-03-14T10:51:51.429Z,12.50
2023-03-14T10:53:02.119Z,14.50
2023-03-14T10:53:51.353Z,13.80
2023-03-14T10:54:51.350Z,12.00
2023-03-14T10:55:51.317Z,17.40
2023-03-14T10:56:51.346Z,21.00
2023-03-14T10:57:51.299Z,17.30
2023-03-14T10:58:51.295Z,25.70
2023-03-14T10:59:51.282Z,37.90
2023-03-14T11:00:51.271Z,31.90
2023-03-14T11:01:51.299Z,22.10
2023-03-14T11:02:51.274Z,30.40
2023-03-14T11:03:51.251Z,26.60
2023-03-14T11:04:51.237Z,40.60
2023-03-14T11:05:51.222Z,38.20
2023-03-14T11:06:51.216Z,36.70
2023-03-14T11:07:51.226Z,44.10
2023-03-14T11:08:51.194Z,38.20
2023-03-14T11:09:51.184Z,35.60
2023-03-14T11:10:51.175Z,46.50
2023-03-14T11:11:51.186Z,25.10
2023-03-14T11:12:51.152Z,8.70
2023-03-14T11:13:51.133Z,6.10
2023-03-14T11:14:51.129Z,3.00
2023-03-14T11:15:51.145Z,2.60
2023-03-14T11:16:51.159Z,4.10
2023-03-14T11:17:51.094Z,3.90
2023-03-14T11:18:51.089Z,6.40
2023-03-14T11:19:51.092Z,1.00
2023-03-14T11:20:51.089Z,0.80
2023-03-14T11:21:51.073Z,1.90
2023-03-14T11:22:51.058Z,0.90
2023-03-14T11:23:51.041Z,1.60
2023-03-14T11:24:51.030Z,2.10
2023-03-14T11:25:51.031Z,2.30
2023-03-14T11:26:51.022Z,0.80
2023-03-14T11:27:51.012Z,15.00
2023-03-14T11:28:51.003Z,4.20
2023-03-14T11:29:50.989Z,2.20
2023-03-14T11:30:50.992Z,5.30
2023-03-14T11:31:50.954Z,1.70
2023-03-14T11:32:51.112Z,1.00
2023-03-14T11:33:50.931Z,1.00
2023-03-14T11:34:50.924Z,1.00
2023-03-14T11:35:50.927Z,0.80
2023-03-14T11:36:50.903Z,0.80
2023-03-14T11:37:50.938Z,1.00
2023-03-14T11:38:51.577Z,1.10
2023-03-14T11:39:51.313Z,1.30
2023-03-14T11:40:51.412Z,0.80
2023-03-14T11:41:50.849Z,1.00
2023-03-14T11:42:50.891Z,1.00
2023-03-14T11:43:50.831Z,1.10
2023-03-14T11:44:50.843Z,1.00
2023-03-14T11:45:50.810Z,2.00
2023-03-14T11:46:50.838Z,1.40
2023-03-14T11:47:50.844Z,0.90
2023-03-14T11:48:50.796Z,0.80
2023-03-14T11:49:50.772Z,1.50
2023-03-14T11:50:50.773Z,2.50
2023-03-14T11:51:50.749Z,0.80
2023-03-14T11:52:50.768Z,1.70
2023-03-14T11:53:50.781Z,1.20
2023-03-14T11:54:50.756Z,3.00
2023-03-14T11:55:50.717Z,1.00
2023-03-14T11:56:50.708Z,1.30
2023-03-14T11:57:50.743Z,1.20
2023-03-14T11:58:50.683Z,1.90
2023-03-14T11:59:50.675Z,3.20
2023-03-14T12:00:50.669Z,1.00
2023-03-14T12:01:50.701Z,1.20
2023-03-14T12:02:50.989Z,1.00
2023-03-14T12:03:50.661Z,1.10
2023-03-14T12:04:50.623Z,2.50
2023-03-14T12:05:50.624Z,1.40
2023-03-14T12:06:50.605Z,3.50
2023-03-14T12:07:50.606Z,2.40
2023-03-14T12:08:50.585Z,5.10
2023-03-14T12:09:50.571Z,1.70
2023-03-14T12:10:50.575Z,5.20
2023-03-14T12:11:50.554Z,3.20
2023-03-14T12:12:50.555Z,3.90
2023-03-14T12:13:50.533Z,3.50
2023-03-14T12:14:50.515Z,3.30
2023-03-14T12:15:50.515Z,2.50
2023-03-14T12:16:50.536Z,2.20
2023-03-14T12:17:50.553Z,2.20
2023-03-14T12:18:50.480Z,3.10
2023-03-14T12:19:50.474Z,1.90
2023-03-14T12:20:50.465Z,4.00
2023-03-14T12:21:50.462Z,4.00
2023-03-14T12:22:50.467Z,2.40
2023-03-14T12:23:50.426Z,2.40
2023-03-14T12:24:50.414Z,3.30
2023-03-14T12:25:50.411Z,1.40
2023-03-14T12:26:50.393Z,1.90
2023-03-14T12:27:50.446Z,3.00
2023-03-14T12:28:50.943Z,2.80
2023-03-14T12:29:50.369Z,2.70
2023-03-14T12:30:50.351Z,2.40
2023-03-14T12:31:50.418Z,3.40
2023-03-14T12:32:50.420Z,5.20
2023-03-14T12:33:50.327Z,3.50
2023-03-14T12:34:50.311Z,3.30
2023-03-14T12:35:50.445Z,4.60
2023-03-14T12:36:50.295Z,3.90
2023-03-14T12:37:50.301Z,9.30
2023-03-14T12:38:50.277Z,3.20
2023-03-14T12:39:50.270Z,7.10
2023-03-14T12:40:50.253Z,4.60
2023-03-14T12:41:50.256Z,8.90
2023-03-14T12:42:50.245Z,8.30
2023-03-14T12:43:50.232Z,6.50
2023-03-14T12:44:50.225Z,5.00
2023-03-14T12:45:50.237Z,6.30
2023-03-14T12:46:50.219Z,5.40
2023-03-14T12:47:50.197Z,3.30
2023-03-14T12:48:50.177Z,10.30
2023-03-14T12:49:50.167Z,6.40
2023-03-14T12:50:50.149Z,8.70
2023-03-14T12:51:50.198Z,8.50
2023-03-14T12:52:50.151Z,7.90
2023-03-14T12:53:50.121Z,5.30
2023-03-14T12:54:50.109Z,7.10
2023-03-14T12:55:50.162Z,5.10
2023-03-14T12:56:50.189Z,9.50
2023-03-14T12:57:50.156Z,5.90
2023-03-14T12:58:50.167Z,6.60
2023-03-14T12:59:50.059Z,6.00
2023-03-14T13:00:50.082Z,7.00
2023-03-14T13:01:50.049Z,8.40
2023-03-14T13:02:50.019Z,8.50
2023-03-14T13:03:50.095Z,6.60
2023-03-14T13:04:50.003Z,9.40
2023-03-14T13:05:49.993Z,7.30
2023-03-14T13:06:49.987Z,10.80
2023-03-14T13:07:49.980Z,6.30